Latest Weather Observations for Borroloola

IDD60801

Issued at 8:21 am CST Monday 1 March 2021 (issued every 10 minutes, with the page automatically refreshed every 10 minutes)

About weather observations | Map of weather stations | Latest weather observations for NT | Other Formats
Station Details ID: 014723 Name: BORROLOOLA AIRPORT Lat: -16.08 Lon: 136.30 Height: 16.1 m
Data from the previous 72 hours. | See also: Recent months at Borroloola
Date/Time
CST
Temp
°C
App
Temp
°C
Dew
Point
°C
Rel
Hum
%
Delta-T
°C
Wind Press
QNH
hPa
Press
MSL
hPa
Rain since
9am
mm
Dir  Spd
km/h
Gust
km/h
Spd
kts
Gust
kts
01/08:00am 24.5 25.6 17.2 63 4.5 W 7 11 4 6 1007.0 1006.9 0.0
01/07:30am 23.1 24.3 18.2 74 3.1 WSW 9 13 5 7 1006.6 1006.5 0.0
01/07:00am 22.1 23.7 17.9 77 2.6 WSW 6 7 3 4 1006.5 1006.4 0.0
01/06:30am 21.2 22.4 16.8 76 2.7 SW 6 6 3 3 1006.3 1006.2 0.0
01/06:00am 21.5 22.7 17.3 77 2.6 WSW 7 9 4 5 1005.9 1005.8 0.0
01/05:30am 22.6 25.4 20.5 88 1.4 WSW 6 7 3 4 1005.5 1005.4 0.0
01/05:00am 22.4 24.8 19.6 84 1.8 S 6 9 3 5 1005.2 1005.1 0.0
01/04:30am 23.3 28.0 21.9 92 0.9 CALM 0 0 0 0 1005.0 1004.9 0.0
01/04:00am 24.2 29.6 23.2 94 0.7 CALM 0 0 0 0 1005.0 1004.9 0.0
01/03:30am 24.1 28.4 22.7 92 0.9 S 4 7 2 4 1005.0 1004.9 0.0
01/03:00am 24.5 28.2 22.6 89 1.3 W 7 7 4 4 1005.1 1005.0 0.0
01/02:30am 25.1 30.2 24.6 97 0.3 WNW 6 7 3 4 1005.4 1005.3 0.0
01/02:00am 24.8 30.4 23.6 93 0.8 CALM 0 0 0 0 1005.6 1005.5 0.0
01/01:30am 25.3 31.0 23.7 91 1.1 CALM 0 0 0 0 1005.8 1005.7 0.0
01/01:00am 25.8 31.1 24.4 92 1.0 SW 4 9 2 5 1006.0 1005.9 0.0
01/12:30am 26.3 31.0 24.3 89 1.4 WNW 7 7 4 4 1006.0 1005.9 0.0
01/12:00am 26.9 31.8 25.3 91 1.1 NW 9 11 5 6 1005.9 1005.8 0.0
 
Date/Time
CST
Temp
°C
App
Temp
°C
Dew
Point
°C
Rel
Hum
%
Delta-T
°C
Wind Press
QNH
hPa
Press
MSL
hPa
Rain since
9am
mm
Dir  Spd
km/h
Gust
km/h
Spd
kts
Gust
kts
28/11:30pm 27.1 32.3 25.1 89 1.4 N 7 7 4 4 1006.1 1006.0 0.0
28/11:00pm 27.6 33.2 25.4 88 1.5 N 6 7 3 4 1006.2 1006.1 0.0
28/10:30pm 27.8 32.8 25.4 87 1.7 N 9 13 5 7 1006.0 1005.9 0.0
28/10:00pm 28.2 33.6 25.4 85 2.0 NNW 7 9 4 5 1006.0 1005.9 0.0
28/09:30pm 28.6 33.6 25.4 83 2.3 N 9 11 5 6 1005.6 1005.5 0.0
28/09:00pm 29.1 33.7 25.3 80 2.7 NNW 11 15 6 8 1005.3 1005.2 0.0
28/08:30pm 29.5 33.5 25.0 77 3.2 N 13 15 7 8 1005.2 1005.1 0.0
28/08:00pm 30.3 34.6 24.9 73 3.8 NNE 11 17 6 9 1005.0 1004.9 0.0
28/07:30pm 30.8 34.7 24.2 68 4.6 NNE 11 15 6 8 1004.8 1004.7 0.0
28/07:00pm 31.4 34.2 21.6 56 6.6 NNE 9 15 5 8 1004.1 1004.0 0.0
28/06:30pm 34.1 39.5 25.2 59 6.3 NW 6 9 3 5 1003.8 1003.7 0.0
28/06:00pm 35.4 40.5 22.7 47 8.8 CALM 0 0 0 0 1003.4 1003.3 0.0
28/05:30pm 35.1 38.6 19.5 40 10.4 CALM 0 6 0 3 1003.2 1003.1 0.0
28/05:00pm 35.8 39.8 20.5 41 10.3 CALM 0 0 0 0 1003.3 1003.2 0.0
28/04:30pm 35.6 37.0 18.7 37 11.1 WSW 9 11 5 6 1003.3 1003.2 0.0
28/04:00pm 35.5 37.6 19.4 38 10.7 S 7 11 4 6 1003.3 1003.2 0.0
28/03:30pm 35.4 38.8 20.1 40 10.3 S 2 9 1 5 1003.7 1003.6 0.0
28/03:00pm 35.6 39.5 21.1 43 9.9 WSW 2 11 1 6 1003.9 1003.8 0.0
28/02:30pm 34.9 38.6 22.2 47 8.7 SSW 6 9 3 5 1004.3 1004.2 0.0
28/02:00pm 34.2 37.4 21.3 47 8.7 S 6 13 3 7 1004.9 1004.8 0.0
28/01:30pm 33.4 35.8 21.5 49 8.1 WSW 11 15 6 8 1005.1 1005.0 0.0
28/01:00pm 33.2 36.4 21.7 51 7.8 SW 7 15 4 8 1005.8 1005.7 0.0
28/12:30pm 32.9 36.1 22.4 54 7.2 WSW 9 15 5 8 1006.2 1006.1 0.0
28/12:00pm 32.4 35.9 22.8 57 6.6 W 9 13 5 7 1006.5 1006.4 0.0
28/11:30am 31.7 34.6 22.4 58 6.4 W 11 19 6 10 1006.9 1006.8 0.0
28/11:00am 31.2 34.3 22.8 61 5.8 WNW 11 17 6 9 1007.4 1007.3 0.0
28/10:30am 30.9 33.6 22.8 62 5.6 WNW 13 17 7 9 1007.6 1007.5 0.0
28/10:00am 30.8 35.1 23.7 66 4.9 W 7 13 4 7 1007.8 1007.7 0.0
28/09:30am 29.8 33.9 23.3 68 4.5 W 7 11 4 6 1007.9 1007.8 0.0
28/09:00am 28.9 33.2 23.3 72 3.8 W 6 9 3 5 1008.0 1007.9 0.0
28/08:30am 28.0 32.4 23.4 76 3.2 WSW 6 9 3 5 1007.9 1007.8 0.0
28/08:00am 27.2 32.7 23.4 80 2.6 CALM 0 0 0 0 1007.6 1007.5 0.0
28/07:30am 26.6 33.2 25.2 92 1.0 CALM 0 6 0 3 1007.2 1007.1 0.0
28/07:00am 25.3 31.9 25.3 100 0.0 CALM 0 0 0 0 1006.7 1006.6 0.0
28/06:30am 24.6 30.7 24.4 99 0.1 CALM 0 6 0 3 1006.4 1006.3 0.0
28/06:00am 24.7 30.8 24.5 99 0.1 CALM 0 0 0 0 1006.1 1006.0 0.0
28/05:30am 24.6 29.5 24.4 99 0.1 SW 6 9 3 5 1005.8 1005.7 0.0
28/05:00am 24.5 30.2 23.8 96 0.5 CALM 0 4 0 2 1005.3 1005.2 0.0
28/04:30am 25.0 31.1 24.5 97 0.3 CALM 0 0 0 0 1005.1 1005.0 0.0
28/04:00am 25.2 31.6 24.9 98 0.2 CALM 0 0 0 0 1005.2 1005.1 0.0
28/03:30am 25.5 32.1 25.2 98 0.2 CALM 0 0 0 0 1005.0 1004.9 0.0
28/03:00am 25.2 31.2 24.2 94 0.7 CALM 0 0 0 0 1005.3 1005.2 0.0
28/02:30am 25.4 31.5 24.4 94 0.7 CALM 0 0 0 0 1005.4 1005.3 0.0
28/02:00am 25.8 32.0 24.6 93 0.8 CALM 0 0 0 0 1005.4 1005.3 0.0
28/01:30am 25.9 32.2 24.7 93 0.8 CALM 0 0 0 0 1005.6 1005.5 0.0
28/01:00am 26.1 32.4 24.7 92 1.0 CALM 0 0 0 0 1005.7 1005.6 0.0
28/12:30am 26.3 32.7 24.9 92 1.0 CALM 0 0 0 0 1006.1 1006.0 0.0
28/12:00am 26.7 33.2 25.1 91 1.1 CALM 0 0 0 0 1006.5 1006.4 0.0
 
Date/Time
CST
Temp
°C
App
Temp
°C
Dew
Point
°C
Rel
Hum
%
Delta-T
°C
Wind Press
QNH
hPa
Press
MSL
hPa
Rain since
9am
mm
Dir  Spd
km/h
Gust
km/h
Spd
kts
Gust
kts
27/11:30pm 27.0 32.4 25.2 90 1.3 W 6 9 3 5 1006.6 1006.5 0.0
27/11:00pm 27.2 32.3 24.7 86 1.7 NNW 6 7 3 4 1006.6 1006.5 0.0
27/10:30pm 27.4 32.2 24.5 84 2.0 NE 7 9 4 5 1006.6 1006.5 0.0
27/10:00pm 27.7 32.0 24.3 82 2.4 N 9 11 5 6 1006.6 1006.5 0.0
27/09:30pm 28.0 32.4 24.4 81 2.5 NNE 9 11 5 6 1006.2 1006.1 0.0
27/09:00pm 28.2 32.6 24.4 80 2.6 N 9 13 5 7 1005.7 1005.6 0.0
27/08:30pm 28.6 32.7 24.6 79 2.8 N 11 13 6 7 1005.1 1005.0 0.0
27/08:00pm 29.1 33.0 24.2 75 3.4 N 11 15 6 8 1004.7 1004.6 0.0
27/07:30pm 30.0 33.3 21.9 62 5.5 NNE 7 9 4 5 1004.1 1004.0 0.0
27/07:00pm 31.2 33.1 18.9 48 8.0 N 7 9 4 5 1003.7 1003.6 0.0
27/06:30pm 32.1 34.0 19.0 45 8.6 NE 7 9 4 5 1003.3 1003.2 0.0
27/06:00pm 35.0 40.8 24.0 53 7.7 CALM 0 0 0 0 1003.0 1002.9 0.0
27/05:30pm 35.8 39.8 20.5 41 10.3 CALM 0 0 0 0 1002.7 1002.6 0.0
27/05:00pm 35.2 36.6 17.4 34 11.5 ESE 6 9 3 5 1002.7 1002.6 0.0
27/04:30pm 35.3 36.6 17.0 33 11.8 ESE 6 13 3 7 1002.8 1002.7 0.0
27/04:00pm 35.2 36.6 18.7 37 10.8 SSE 9 13 5 7 1002.9 1002.8 0.0
27/03:30pm 34.9 36.6 19.3 40 10.3 ESE 9 15 5 8 1003.1 1003.0 0.0
27/03:00pm 34.8 34.9 16.6 33 11.6 SE 11 19 6 10 1003.4 1003.3 0.0
27/02:30pm 34.1 34.7 18.6 40 10.2 SE 13 19 7 10 1003.5 1003.4 0.0
27/02:00pm 34.5 38.2 22.2 48 8.4 WSW 6 11 3 6 1003.6 1003.5 0.0
27/01:30pm 33.8 35.3 20.6 46 8.9 SW 13 17 7 9 1004.2 1004.1 0.0
27/01:00pm 33.4 36.8 20.9 48 8.4 S 4 9 2 5 1004.9 1004.8 0.0
27/12:30pm 33.2 36.4 21.7 51 7.8 SSE 7 15 4 8 1005.3 1005.2 0.0
27/12:00pm 32.3 35.2 21.8 54 7.1 SW 9 13 5 7 1005.8 1005.7 0.0
27/11:30am 31.7 35.2 22.1 56 6.5 WSW 7 13 4 7 1006.1 1006.0 0.0
27/11:00am 31.2 35.1 21.9 57 6.3 WSW 4 9 2 5 1006.4 1006.3 0.0
27/10:30am 30.5 33.9 22.7 63 5.3 SW 9 15 5 8 1006.6 1006.5 0.0
27/10:00am 29.8 33.8 23.7 70 4.2 WSW 9 13 5 7 1006.8 1006.7 0.0
27/09:30am 28.6 32.3 23.3 73 3.6 WSW 9 13 5 7 1007.0 1006.9 0.0
27/09:00am 27.7 31.3 23.1 76 3.1 SW 9 11 5 6 1006.9 1006.8 0.2
27/08:30am 26.5 31.2 23.4 83 2.1 SSW 4 9 2 5 1006.9 1006.8 0.2
27/08:00am 25.7 30.6 23.6 88 1.4 S 4 7 2 4 1006.8 1006.7 0.2
27/07:30am 25.0 30.6 23.6 92 1.0 CALM 0 7 0 4 1006.5 1006.4 0.2
27/07:00am 24.0 29.7 23.7 98 0.2 CALM 0 0 0 0 1005.9 1005.8 0.2
27/06:30am 23.6 28.8 22.9 96 0.5 CALM 0 0 0 0 1005.7 1005.6 0.2
27/06:00am 23.5 28.6 22.7 95 0.5 CALM 0 0 0 0 1005.4 1005.3 0.2
27/05:30am 23.6 28.5 22.4 93 0.8 CALM 0 0 0 0 1005.1 1005.0 0.2
27/05:00am 23.7 28.9 22.9 95 0.5 CALM 0 0 0 0 1004.8 1004.7 0.2
27/04:30am 23.7 28.6 22.3 92 0.9 CALM 0 0 0 0 1004.6 1004.5 0.2
27/04:00am 23.7 27.7 22.7 94 0.7 SSE 6 7 3 4 1004.5 1004.4 0.2
27/03:30am 24.0 28.0 23.1 95 0.6 SE 7 9 4 5 1004.5 1004.4 0.2
27/03:00am 24.1 28.1 23.1 94 0.7 ESE 7 7 4 4 1004.6 1004.5 0.2
27/02:30am 24.3 29.6 23.1 93 0.8 CALM 0 0 0 0 1004.7 1004.6 0.2
27/02:00am 24.8 30.2 23.2 91 1.1 CALM 0 0 0 0 1004.8 1004.7 0.2
27/01:30am 25.0 30.6 23.6 92 1.0 CALM 0 0 0 0 1005.0 1004.9 0.2
27/01:00am 25.2 30.7 23.4 90 1.2 CALM 0 0 0 0 1005.4 1005.3 0.2
27/12:30am 25.3 30.7 23.2 88 1.4 CALM 0 0 0 0 1005.3 1005.2 0.2
27/12:00am 25.4 30.4 22.5 84 2.0 CALM 0 0 0 0 1005.7 1005.6 0.2
 
Date/Time
CST
Temp
°C
App
Temp
°C
Dew
Point
°C
Rel
Hum
%
Delta-T
°C
Wind Press
QNH
hPa
Press
MSL
hPa
Rain since
9am
mm
Dir  Spd
km/h
Gust
km/h
Spd
kts
Gust
kts
26/11:30pm 25.9 30.2 22.6 82 2.2 N 4 6 2 3 1005.8 1005.7 0.2
26/11:00pm 26.0 29.6 22.3 80 2.5 NNE 7 9 4 5 1005.9 1005.8 0.2
26/10:30pm 26.1 28.9 21.5 76 3.1 NNE 9 11 5 6 1005.7 1005.6 0.2
26/10:00pm 26.4 29.7 21.8 76 3.1 NNE 7 9 4 5 1005.4 1005.3 0.2
26/09:30pm 27.0 30.9 20.3 66 4.4 CALM 0 0 0 0 1005.4 1005.3 0.2
26/09:00pm 27.5 30.4 20.6 66 4.6 N 6 7 3 4 1005.1 1005.0 0.2
26/08:30pm 28.0 30.5 20.3 63 5.1 NNE 7 11 4 6 1004.9 1004.8 0.2
26/08:00pm 28.3 30.2 19.8 60 5.5 N 9 9 5 5 1004.6 1004.5 0.2
26/07:30pm 29.2 30.6 18.6 52 6.8 NNE 9 11 5 6 1004.1 1004.0 0.2
26/07:00pm 30.4 31.1 17.1 44 8.4 NNE 9 13 5 7 1003.8 1003.7 0.2
26/06:30pm 31.8 32.3 16.5 39 9.7 NNE 9 13 5 7 1003.2 1003.1 0.2
26/06:00pm 33.9 34.3 15.4 33 11.6 E 7 11 4 6 1002.7 1002.6 0.2
26/05:30pm 35.1 36.9 17.3 34 11.5 E 4 9 2 5 1002.4 1002.3 0.2
26/05:00pm 35.2 35.5 15.0 30 12.6 SE 7 9 4 5 1002.3 1002.2 0.2
26/04:30pm 35.4 36.5 15.7 31 12.5 ESE 4 9 2 5 1002.3 1002.2 0.2
26/04:00pm 35.2 34.9 11.6 24 14.0 SE 4 9 2 5 1002.4 1002.3 0.2
26/03:30pm 34.9 33.2 10.0 22 14.5 SSE 9 15 5 8 1002.5 1002.4 0.2
26/03:00pm 35.3 35.6 16.1 32 12.2 S 9 13 5 7 1002.8 1002.7 0.2
26/02:30pm 34.8 33.9 12.5 26 13.4 W 9 13 5 7 1003.1 1003.0 0.2
26/02:00pm 35.0 35.8 16.3 32 11.9 S 7 11 4 6 1003.4 1003.3 0.2
26/01:30pm 34.3 33.4 12.6 27 13.1 SSW 9 15 5 8 1003.9 1003.8 0.2
26/01:00pm 34.2 34.0 14.7 31 12.1 SSE 9 15 5 8 1004.4 1004.3 0.2
26/12:30pm 33.5 33.9 17.2 37 10.5 S 11 19 6 10 1004.7 1004.6 0.2
26/12:00pm 32.7 32.7 14.3 32 11.3 S 7 13 4 7 1005.2 1005.1 0.2
26/11:30am 32.3 31.9 16.2 38 10.1 SSE 13 17 7 9 1005.2 1005.1 0.2
26/11:00am 31.3 30.0 14.9 37 10.1 SE 15 26 8 14 1005.3 1005.2 0.2
26/10:30am 30.9 31.4 18.3 47 8.1 S 13 19 7 10 1005.7 1005.6 0.2
26/10:00am 30.2 32.4 21.8 60 5.7 SSW 13 19 7 10 1005.9 1005.8 0.2
26/09:30am 29.2 31.6 22.2 66 4.7 SSW 13 17 7 9 1006.0 1005.9 0.0
26/09:00am 27.8 31.1 23.2 76 3.2 SSW 11 15 6 8 1005.9 1005.8 8.4
26/08:30am 26.7 31.0 23.6 83 2.1 SSW 7 11 4 6 1005.9 1005.8 8.4

Other formats

Comma delimited format used in spreadsheet applications
http://www.bom.gov.au/fwo/IDD60801/IDD60801.94152.axf

JavaScript Object Notation format (JSON) in row-major order
http://www.bom.gov.au/fwo/IDD60801/IDD60801.94152.json

Data quality

Most of these data are generated automatically and are frequently updated. Quality checks on data are not normally performed. It is possible for incorrect values to appear. Refer to information at About Latest Weather Observations and please check the disclaimer before using these data.